Time;durP1;ratioP1;P1;durP2;ratioP2;P2;SDS_P1;SDS_P2;PMS_P1;PMS_P2;Temp;Humidity;BMP_temperature;BMP_pressure;BME280_temperature;BME280_humidity;BME280_pressure;Samples;Min_cycle;Max_cycle;Signal;HPM_P1;HPM_P2
2021/07/20 00:02:40;;;;;;;8.13;5.82;;;;;;;;;;4970646;28;20089;-50
2021/07/20 00:05:09;;;;;;;10.02;6.53;;;;;;;;;;4961960;28;20512;-49
2021/07/20 00:07:36;;;;;;;9.95;6.80;;;;;;;;;;4967000;28;20047;-50
2021/07/20 00:10:07;;;;;;;10.80;7.35;;;;;;;;;;4955153;29;20138;-47
2021/07/20 00:12:34;;;;;;;9.60;6.93;;;;;;;;;;4971889;28;20045;-46
2021/07/20 00:15:01;;;;;;;14.85;7.40;;;;;;;;;;4968684;28;20122;-46
2021/07/20 00:17:29;;;;;;;10.35;7.45;;;;;;;;;;4970510;28;20397;-48
2021/07/20 00:19:55;;;;;;;11.07;7.32;;;;;;;;;;4973713;28;20039;-45
2021/07/20 00:22:22;;;;;;;11.35;7.15;;;;;;;;;;4971105;28;20043;-46
2021/07/20 00:24:49;;;;;;;13.48;7.35;;;;;;;;;;4968693;28;20078;-46
2021/07/20 00:27:16;;;;;;;13.63;8.30;;;;;;;;;;4974640;28;20109;-48
2021/07/20 00:29:43;;;;;;;14.45;7.82;;;;;;;;;;4971426;28;20125;-48
2021/07/20 00:32:10;;;;;;;11.07;8.00;;;;;;;;;;4974377;28;20133;-47
2021/07/20 00:34:38;;;;;;;12.73;8.48;;;;;;;;;;4972402;28;20404;-49
2021/07/20 00:37:06;;;;;;;11.38;8.23;;;;;;;;;;4967857;28;20493;-46
2021/07/20 00:39:34;;;;;;;12.73;8.30;;;;;;;;;;4962917;28;20051;-46
2021/07/20 00:42:01;;;;;;;11.15;8.50;;;;;;;;;;4972920;28;20117;-48
2021/07/20 00:44:28;;;;;;;12.57;8.50;;;;;;;;;;4972106;28;20039;-48
2021/07/20 00:46:55;;;;;;;13.38;8.77;;;;;;;;;;4973283;28;20516;-45
2021/07/20 00:49:22;;;;;;;13.00;8.85;;;;;;;;;;4973284;28;20538;-50
2021/07/20 00:51:49;;;;;;;13.25;8.95;;;;;;;;;;4970435;28;20122;-48
2021/07/20 00:54:17;;;;;;;14.35;8.90;;;;;;;;;;4953842;28;20091;-47
2021/07/20 00:56:44;;;;;;;12.02;8.52;;;;;;;;;;4962334;28;20039;-47
2021/07/20 00:59:12;;;;;;;14.05;9.15;;;;;;;;;;4955982;28;20460;-49
2021/07/20 01:01:40;;;;;;;14.82;9.73;;;;;;;;;;4956732;28;20682;-47
2021/07/20 01:04:08;;;;;;;11.30;9.00;;;;;;;;;;4955169;28;20461;-47
2021/07/20 01:06:35;;;;;;;11.98;8.27;;;;;;;;;;4972889;28;20042;-47
2021/07/20 01:09:05;;;;;;;11.18;8.55;;;;;;;;;;4958484;28;20043;-48
2021/07/20 01:11:39;;;;;;;12.65;8.85;;;;;;;;;;4973381;28;20128;-47
2021/07/20 01:14:06;;;;;;;11.18;8.95;;;;;;;;;;4973749;28;20074;-47
2021/07/20 01:16:35;;;;;;;11.80;8.48;;;;;;;;;;4968153;28;20043;-46
2021/07/20 01:19:04;;;;;;;11.90;8.32;;;;;;;;;;4960698;28;20049;-49
2021/07/20 01:21:35;;;;;;;12.50;9.20;;;;;;;;;;4972088;28;20051;-48
2021/07/20 01:24:06;;;;;;;10.57;8.38;;;;;;;;;;4968615;28;20126;-49
2021/07/20 01:26:35;;;;;;;11.90;8.43;;;;;;;;;;4965259;28;20047;-48
2021/07/20 01:29:04;;;;;;;11.27;8.40;;;;;;;;;;4970637;28;20049;-48
2021/07/20 01:31:32;;;;;;;12.65;9.07;;;;;;;;;;4972470;28;20077;-48
2021/07/20 01:34:06;;;;;;;13.55;8.90;;;;;;;;;;4971525;28;20062;-48
2021/07/20 01:36:34;;;;;;;11.43;8.50;;;;;;;;;;4971221;28;20480;-48
2021/07/20 01:39:02;;;;;;;14.43;8.75;;;;;;;;;;4978159;28;20054;-48
2021/07/20 01:41:31;;;;;;;12.82;9.13;;;;;;;;;;4971374;28;20050;-51
2021/07/20 01:44:04;;;;;;;13.55;9.27;;;;;;;;;;4967908;28;20058;-47
2021/07/20 01:46:32;;;;;;;12.50;9.00;;;;;;;;;;4969038;28;20051;-47
2021/07/20 01:49:01;;;;;;;12.93;9.02;;;;;;;;;;4968800;28;20050;-48
2021/07/20 01:51:28;;;;;;;9.98;7.75;;;;;;;;;;4970447;28;20156;-48
2021/07/20 01:53:57;;;;;;;10.15;8.27;;;;;;;;;;4968623;28;20472;-48
2021/07/20 01:56:23;;;;;;;12.68;8.90;;;;;;;;;;4969572;28;20054;-49
2021/07/20 01:58:51;;;;;;;11.55;8.40;;;;;;;;;;4969262;28;20050;-52
2021/07/20 02:01:30;;;;;;;11.20;8.35;;;;;;;;;;4970718;28;20047;-48
2021/07/20 02:09:51;;;;;;;10.45;8.20;;;;;;;;;;4971489;28;20046;-51
2021/07/20 02:12:30;;;;;;;12.30;8.65;;;;;;;;;;4971043;28;20051;-48
2021/07/20 02:15:18;;;;;;;10.70;8.10;;;;;;;;;;4954844;28;20054;-48
2021/07/20 02:18:05;;;;;;;11.00;8.60;;;;;;;;;;4955801;28;20051;-48
2021/07/20 02:20:37;;;;;;;12.60;8.48;;;;;;;;;;4956772;28;20054;-48
2021/07/20 02:23:08;;;;;;;11.40;8.23;;;;;;;;;;4971731;28;20422;-48
2021/07/20 02:25:37;;;;;;;13.00;9.13;;;;;;;;;;4970970;28;20042;-50
2021/07/20 02:28:23;;;;;;;10.13;8.40;;;;;;;;;;4971708;28;20526;-47
2021/07/20 02:30:50;;;;;;;11.98;8.63;;;;;;;;;;4959422;28;20504;-49
2021/07/20 02:33:17;;;;;;;11.77;8.90;;;;;;;;;;4971563;28;20050;-50
2021/07/20 02:35:44;;;;;;;13.50;8.80;;;;;;;;;;4972672;28;20163;-48
2021/07/20 02:38:32;;;;;;;13.57;9.63;;;;;;;;;;4970318;28;20049;-48
2021/07/20 02:41:00;;;;;;;13.35;10.05;;;;;;;;;;4964515;28;20473;-48
2021/07/20 02:43:27;;;;;;;13.52;9.68;;;;;;;;;;4970792;28;20042;-49
2021/07/20 02:45:54;;;;;;;13.75;11.02;;;;;;;;;;4975262;28;20042;-50
2021/07/20 02:48:23;;;;;;;15.75;10.68;;;;;;;;;;4973495;28;20393;-48
2021/07/20 02:50:50;;;;;;;15.00;10.25;;;;;;;;;;4957256;28;20122;-50
2021/07/20 02:53:23;;;;;;;13.45;9.45;;;;;;;;;;4958932;28;20046;-50
2021/07/20 02:55:55;;;;;;;15.52;9.48;;;;;;;;;;4974284;28;20042;-49
2021/07/20 02:58:25;;;;;;;14.60;10.57;;;;;;;;;;4973941;28;20043;-48
2021/07/20 03:00:55;;;;;;;14.05;10.32;;;;;;;;;;4974728;28;20050;-49
2021/07/20 03:03:23;;;;;;;15.10;11.43;;;;;;;;;;4974190;28;20129;-47
2021/07/20 03:05:54;;;;;;;14.93;10.43;;;;;;;;;;4975190;28;20811;-46
2021/07/20 03:08:29;;;;;;;16.10;10.63;;;;;;;;;;4973828;28;20055;-47
2021/07/20 03:11:22;;;;;;;14.95;10.63;;;;;;;;;;4973143;28;20117;-50
2021/07/20 03:13:54;;;;;;;14.30;9.95;;;;;;;;;;4974321;28;20142;-47
2021/07/20 03:16:22;;;;;;;14.23;9.60;;;;;;;;;;4975471;28;20094;-49
2021/07/20 03:18:50;;;;;;;15.32;10.68;;;;;;;;;;4959955;28;20089;-46
2021/07/20 03:21:17;;;;;;;15.60;10.27;;;;;;;;;;4974926;28;20045;-47
2021/07/20 03:23:45;;;;;;;15.02;11.00;;;;;;;;;;4975048;28;20074;-50
2021/07/20 03:26:12;;;;;;;15.50;11.10;;;;;;;;;;4971479;28;20078;-46
2021/07/20 03:28:40;;;;;;;17.58;11.75;;;;;;;;;;4972180;28;20043;-50
2021/07/20 03:31:09;;;;;;;16.73;11.55;;;;;;;;;;4955201;29;20519;-47
2021/07/20 03:33:38;;;;;;;16.40;11.60;;;;;;;;;;4958897;28;20045;-49
2021/07/20 03:36:23;;;;;;;13.48;10.75;;;;;;;;;;4974707;28;20496;-46
2021/07/20 03:38:52;;;;;;;16.63;10.77;;;;;;;;;;4985585;28;20043;-48
2021/07/20 03:41:19;;;;;;;14.48;10.40;;;;;;;;;;4974463;28;20046;-47
2021/07/20 03:43:47;;;;;;;13.75;10.48;;;;;;;;;;4957626;28;20043;-49
2021/07/20 03:46:15;;;;;;;15.98;10.07;;;;;;;;;;4967218;28;20048;-49
2021/07/20 03:48:43;;;;;;;20.15;11.93;;;;;;;;;;4966497;28;20074;-46
2021/07/20 03:51:27;;;;;;;15.07;11.82;;;;;;;;;;4974450;28;20488;-46
2021/07/20 03:53:54;;;;;;;16.83;11.02;;;;;;;;;;4953719;28;20162;-48
2021/07/20 03:56:22;;;;;;;16.48;11.55;;;;;;;;;;4954890;28;20070;-48
2021/07/20 03:58:56;;;;;;;14.05;10.55;;;;;;;;;;4955275;28;20102;-47
2021/07/20 04:01:30;;;;;;;15.43;10.50;;;;;;;;;;4958499;28;20140;-50
2021/07/20 04:03:58;;;;;;;14.57;10.70;;;;;;;;;;4974896;28;20046;-47
2021/07/20 04:06:26;;;;;;;15.75;11.25;;;;;;;;;;4974435;28;20456;-45
2021/07/20 04:09:12;;;;;;;17.10;11.55;;;;;;;;;;4970998;28;20121;-50
2021/07/20 04:11:57;;;;;;;14.98;10.15;;;;;;;;;;4973824;28;20046;-48
2021/07/20 04:14:45;;;;;;;14.02;10.20;;;;;;;;;;4965301;28;20038;-46
2021/07/20 04:17:13;;;;;;;14.00;10.27;;;;;;;;;;4955563;28;20058;-47
2021/07/20 04:19:41;;;;;;;17.63;11.50;;;;;;;;;;4957128;28;20077;-46
2021/07/20 04:22:09;;;;;;;14.75;11.10;;;;;;;;;;4973656;28;20412;-47
2021/07/20 04:24:37;;;;;;;17.38;11.60;;;;;;;;;;4969715;28;20035;-46
2021/07/20 04:27:07;;;;;;;17.13;11.90;;;;;;;;;;4965245;28;20050;-45
2021/07/20 04:29:36;;;;;;;17.08;11.82;;;;;;;;;;4972553;28;20050;-45
2021/07/20 04:32:05;;;;;;;17.38;10.40;;;;;;;;;;4972779;28;20047;-46
2021/07/20 04:34:33;;;;;;;17.20;11.60;;;;;;;;;;4973335;28;20078;-48
2021/07/20 04:37:25;;;;;;;15.02;10.30;;;;;;;;;;4970665;28;20053;-45
2021/07/20 04:39:57;;;;;;;16.23;11.43;;;;;;;;;;4953377;28;20086;-48
2021/07/20 04:42:27;;;;;;;17.35;10.98;;;;;;;;;;4986641;28;20584;-49
2021/07/20 04:44:54;;;;;;;16.45;10.90;;;;;;;;;;4954091;29;20118;-47
2021/07/20 04:47:43;;;;;;;16.58;10.77;;;;;;;;;;4956612;28;20078;-46
2021/07/20 04:50:42;;;;;;;17.38;11.65;;;;;;;;;;4949001;28;20051;-50
2021/07/20 04:53:10;;;;;;;12.80;9.60;;;;;;;;;;4960455;28;20046;-51
2021/07/20 04:55:44;;;;;;;15.23;9.88;;;;;;;;;;4967059;28;20123;-46
2021/07/20 04:58:12;;;;;;;12.30;9.68;;;;;;;;;;4973263;28;20039;-46
2021/07/20 05:00:42;;;;;;;13.10;9.52;;;;;;;;;;4967814;28;20050;-50
2021/07/20 05:03:10;;;;;;;15.63;9.43;;;;;;;;;;4959707;28;20438;-48
2021/07/20 05:05:38;;;;;;;16.55;10.32;;;;;;;;;;4973353;28;20145;-45
2021/07/20 05:08:12;;;;;;;14.20;9.85;;;;;;;;;;4967729;28;20047;-48
2021/07/20 05:10:50;;;;;;;15.07;9.98;;;;;;;;;;4957564;28;20042;-48
2021/07/20 05:13:22;;;;;;;14.38;9.40;;;;;;;;;;4971370;28;20165;-49
2021/07/20 05:15:51;;;;;;;13.93;10.00;;;;;;;;;;4972668;28;20042;-47
2021/07/20 05:18:20;;;;;;;14.55;9.52;;;;;;;;;;4972132;28;20109;-50
2021/07/20 05:20:49;;;;;;;14.55;9.88;;;;;;;;;;4972561;28;20111;-49
2021/07/20 05:23:18;;;;;;;16.08;10.15;;;;;;;;;;4970937;28;20101;-46
2021/07/20 05:25:47;;;;;;;14.82;10.02;;;;;;;;;;4956041;28;20053;-46
2021/07/20 05:28:15;;;;;;;12.88;9.60;;;;;;;;;;4969842;28;20097;-49
2021/07/20 05:30:42;;;;;;;14.75;9.93;;;;;;;;;;4968568;28;20046;-46
2021/07/20 05:33:10;;;;;;;16.08;9.88;;;;;;;;;;4969981;28;20050;-50
2021/07/20 05:35:44;;;;;;;15.77;9.18;;;;;;;;;;4953096;29;20054;-48
2021/07/20 05:38:11;;;;;;;17.33;10.68;;;;;;;;;;4953120;28;20118;-49
2021/07/20 05:40:43;;;;;;;13.73;9.25;;;;;;;;;;4968889;28;20508;-49
2021/07/20 05:43:12;;;;;;;15.82;9.20;;;;;;;;;;4968251;28;20089;-47
2021/07/20 05:45:42;;;;;;;11.88;8.90;;;;;;;;;;4956214;23;20547;-52
2021/07/20 05:48:14;;;;;;;13.63;8.63;;;;;;;;;;4945040;29;20036;-55
2021/07/20 05:50:50;;;;;;;16.63;9.95;;;;;;;;;;4930575;29;20051;-55
2021/07/20 05:53:37;;;;;;;16.88;9.75;;;;;;;;;;4933814;29;20047;-56
2021/07/20 05:56:30;;;;;;;16.45;9.95;;;;;;;;;;4931315;29;20036;-56
2021/07/20 05:59:07;;;;;;;14.70;9.35;;;;;;;;;;4912079;29;20123;-55
2021/07/20 06:01:38;;;;;;;18.55;9.85;;;;;;;;;;4915700;29;20132;-55
2021/07/20 06:04:06;;;;;;;13.65;9.75;;;;;;;;;;4932966;29;20134;-54
2021/07/20 06:06:33;;;;;;;14.30;9.85;;;;;;;;;;4934287;29;20493;-55
2021/07/20 06:09:00;;;;;;;13.65;9.32;;;;;;;;;;4945949;29;20058;-56
2021/07/20 06:11:27;;;;;;;12.73;9.73;;;;;;;;;;4934176;29;20040;-54
2021/07/20 06:13:54;;;;;;;11.85;9.30;;;;;;;;;;4933319;29;20144;-55
2021/07/20 06:16:22;;;;;;;13.57;9.75;;;;;;;;;;4930796;29;20043;-55
2021/07/20 06:18:49;;;;;;;17.42;10.00;;;;;;;;;;4918858;29;20060;-55
2021/07/20 06:21:18;;;;;;;14.77;9.65;;;;;;;;;;4922545;29;20115;-56
2021/07/20 06:23:46;;;;;;;14.38;9.85;;;;;;;;;;4933754;29;20138;-56
2021/07/20 06:26:17;;;;;;;16.45;10.48;;;;;;;;;;4934130;29;20055;-56
2021/07/20 06:28:44;;;;;;;17.92;10.25;;;;;;;;;;4935684;28;20401;-55
2021/07/20 06:31:15;;;;;;;17.50;9.88;;;;;;;;;;4939507;28;20090;-56
2021/07/20 06:33:42;;;;;;;14.07;10.05;;;;;;;;;;4933801;29;20040;-55
2021/07/20 06:36:09;;;;;;;15.38;10.65;;;;;;;;;;4933578;29;20138;-54
2021/07/20 06:38:36;;;;;;;16.63;10.77;;;;;;;;;;4932886;29;20071;-56
2021/07/20 06:41:04;;;;;;;13.57;9.98;;;;;;;;;;4932712;29;20587;-57
2021/07/20 06:43:32;;;;;;;15.05;10.18;;;;;;;;;;4934077;29;20135;-55
2021/07/20 06:46:00;;;;;;;15.88;10.38;;;;;;;;;;4933514;29;20054;-55
2021/07/20 06:48:29;;;;;;;15.43;9.95;;;;;;;;;;4933088;29;20044;-54
2021/07/20 06:50:55;;;;;;;15.10;9.82;;;;;;;;;;4933903;29;20051;-55
2021/07/20 06:53:25;;;;;;;13.88;9.45;;;;;;;;;;4933696;29;20044;-55
2021/07/20 06:55:53;;;;;;;12.63;9.40;;;;;;;;;;4951521;29;20043;-54
2021/07/20 06:58:21;;;;;;;13.18;8.90;;;;;;;;;;4940220;29;20058;-56
2021/07/20 07:00:49;;;;;;;15.10;9.45;;;;;;;;;;4933428;29;20142;-53
2021/07/20 07:03:19;;;;;;;13.48;9.73;;;;;;;;;;4931639;29;20123;-56
2021/07/20 07:05:47;;;;;;;12.75;9.60;;;;;;;;;;4933171;29;20047;-55
2021/07/20 07:08:14;;;;;;;18.05;9.85;;;;;;;;;;4931250;29;20052;-53
2021/07/20 07:10:42;;;;;;;18.10;9.68;;;;;;;;;;4931350;29;20123;-52
2021/07/20 07:13:09;;;;;;;13.73;9.80;;;;;;;;;;4931346;29;20077;-56
2021/07/20 07:15:36;;;;;;;13.38;9.25;;;;;;;;;;4933465;29;20656;-55
2021/07/20 07:18:04;;;;;;;14.32;9.73;;;;;;;;;;4929873;29;20079;-55
2021/07/20 07:20:31;;;;;;;15.35;11.70;;;;;;;;;;4932836;29;20134;-55
2021/07/20 07:23:00;;;;;;;16.65;11.45;;;;;;;;;;4932163;29;20046;-55
2021/07/20 07:25:27;;;;;;;17.10;11.43;;;;;;;;;;4933539;29;20063;-55
2021/07/20 07:27:55;;;;;;;15.40;10.10;;;;;;;;;;4932206;29;20828;-53
2021/07/20 07:30:22;;;;;;;13.05;9.80;;;;;;;;;;4946957;28;20047;-54
2021/07/20 07:32:49;;;;;;;12.45;8.90;;;;;;;;;;4938435;29;20051;-53
2021/07/20 07:35:16;;;;;;;14.23;9.65;;;;;;;;;;4936775;29;20040;-54
2021/07/20 07:37:45;;;;;;;15.02;10.20;;;;;;;;;;4928213;29;20087;-55
2021/07/20 07:40:13;;;;;;;13.45;9.15;;;;;;;;;;4934244;29;20055;-56
2021/07/20 07:42:41;;;;;;;12.15;9.05;;;;;;;;;;4951650;29;20036;-55
2021/07/20 07:45:11;;;;;;;12.02;8.82;;;;;;;;;;4935871;29;20055;-55
2021/07/20 07:47:38;;;;;;;14.82;9.18;;;;;;;;;;4940913;29;20417;-56
2021/07/20 07:50:06;;;;;;;16.85;9.75;;;;;;;;;;4943144;29;20055;-52
2021/07/20 07:52:35;;;;;;;13.55;8.50;;;;;;;;;;4933508;29;20135;-54
2021/07/20 07:55:03;;;;;;;12.18;8.90;;;;;;;;;;4930745;29;20047;-51
2021/07/20 07:57:30;;;;;;;10.75;8.32;;;;;;;;;;4934802;29;20035;-56
2021/07/20 07:59:58;;;;;;;13.63;9.02;;;;;;;;;;4938798;29;20131;-55
2021/07/20 08:02:30;;;;;;;13.40;9.00;;;;;;;;;;4934060;29;20504;-55
2021/07/20 08:04:59;;;;;;;13.30;9.73;;;;;;;;;;4918818;29;20056;-51
2021/07/20 08:07:27;;;;;;;13.32;8.93;;;;;;;;;;4936470;29;20096;-55
2021/07/20 08:09:55;;;;;;;13.57;8.82;;;;;;;;;;4941318;29;20079;-51
2021/07/20 08:12:23;;;;;;;10.98;8.57;;;;;;;;;;4935285;29;20051;-55
2021/07/20 08:14:50;;;;;;;16.55;9.25;;;;;;;;;;4928334;29;20131;-53
2021/07/20 08:17:17;;;;;;;11.77;8.38;;;;;;;;;;4930862;29;20052;-55
2021/07/20 08:19:45;;;;;;;13.70;8.15;;;;;;;;;;4924225;29;20126;-55
2021/07/20 08:22:15;;;;;;;10.60;7.53;;;;;;;;;;4929940;29;20115;-56
2021/07/20 08:24:54;;;;;;;12.30;7.93;;;;;;;;;;4935374;29;20052;-55
2021/07/20 08:27:40;;;;;;;12.23;8.00;;;;;;;;;;4934272;29;20075;-55
2021/07/20 08:30:08;;;;;;;11.52;8.13;;;;;;;;;;4932812;28;20075;-57
2021/07/20 08:32:44;;;;;;;12.75;7.70;;;;;;;;;;4931056;29;20114;-56
2021/07/20 08:35:14;;;;;;;15.00;8.52;;;;;;;;;;4934457;29;20063;-55
2021/07/20 08:37:52;;;;;;;11.32;8.55;;;;;;;;;;4934103;29;20036;-54
2021/07/20 08:40:19;;;;;;;10.30;7.50;;;;;;;;;;4933603;29;20491;-55
2021/07/20 08:42:55;;;;;;;10.45;7.20;;;;;;;;;;4926862;29;20040;-55
2021/07/20 08:45:25;;;;;;;11.10;7.30;;;;;;;;;;4922892;29;20043;-54
2021/07/20 08:48:01;;;;;;;11.05;8.05;;;;;;;;;;4934295;29;20063;-49
2021/07/20 08:50:29;;;;;;;11.40;8.10;;;;;;;;;;4934764;29;20221;-49
2021/07/20 08:53:05;;;;;;;14.25;8.68;;;;;;;;;;4928499;29;20151;-50
2021/07/20 08:55:35;;;;;;;11.07;7.70;;;;;;;;;;4932004;29;20490;-49
2021/07/20 08:58:03;;;;;;;11.48;8.10;;;;;;;;;;4932285;29;20043;-49
2021/07/20 09:00:36;;;;;;;11.90;8.35;;;;;;;;;;4931371;29;20044;-52
2021/07/20 09:03:11;;;;;;;11.82;7.75;;;;;;;;;;4934776;29;20099;-54
2021/07/20 09:05:43;;;;;;;9.82;7.60;;;;;;;;;;4933534;29;20040;-54
2021/07/20 09:08:17;;;;;;;11.63;8.23;;;;;;;;;;4932464;29;20077;-51
2021/07/20 09:10:52;;;;;;;15.15;8.85;;;;;;;;;;4933190;29;20083;-55
2021/07/20 09:13:27;;;;;;;10.77;7.43;;;;;;;;;;4933667;29;20557;-55
2021/07/20 09:15:59;;;;;;;14.90;8.23;;;;;;;;;;4939763;29;20047;-55
2021/07/20 09:18:29;;;;;;;11.77;8.68;;;;;;;;;;4930849;29;20043;-56
2021/07/20 09:20:59;;;;;;;12.88;8.68;;;;;;;;;;4925616;29;20485;-53
2021/07/20 09:23:32;;;;;;;12.18;8.40;;;;;;;;;;4949678;29;20031;-55
2021/07/20 09:26:06;;;;;;;12.02;8.18;;;;;;;;;;4933605;29;20099;-52
2021/07/20 09:28:39;;;;;;;14.80;9.95;;;;;;;;;;4933101;29;20044;-55
2021/07/20 09:31:06;;;;;;;;;;;;;;;;;;4935529;29;20040;-54
2021/07/20 09:33:33;;;;;;;12.18;8.95;;;;;;;;;;4934670;29;20000;-54
2021/07/20 09:36:01;;;;;;;11.10;8.80;;;;;;;;;;4932790;29;20036;-54
2021/07/20 09:38:43;;;;;;;12.70;8.63;;;;;;;;;;4932548;29;20144;-56
2021/07/20 09:41:24;;;;;;;12.23;9.00;;;;;;;;;;4911179;29;20054;-50
2021/07/20 09:44:10;;;;;;;14.50;8.43;;;;;;;;;;4934146;29;20119;-53
2021/07/20 09:46:41;;;;;;;13.82;9.07;;;;;;;;;;4928979;29;20035;-51
2021/07/20 09:49:17;;;;;;;15.05;9.35;;;;;;;;;;4932297;29;20482;-49
2021/07/20 09:52:08;;;;;;;14.05;8.98;;;;;;;;;;4933764;29;20126;-52
2021/07/20 09:55:13;;;;;;;16.20;9.30;;;;;;;;;;4934094;29;20053;-54
2021/07/20 09:58:00;;;;;;;13.00;8.85;;;;;;;;;;4931252;29;20450;-53
2021/07/20 10:00:45;;;;;;;12.70;8.65;;;;;;;;;;4937400;29;20354;-54
2021/07/20 10:03:12;;;;;;;10.70;8.48;;;;;;;;;;4928486;29;20051;-55
2021/07/20 10:06:09;;;;;;;11.35;8.32;;;;;;;;;;4933447;29;20044;-49
2021/07/20 10:08:39;;;;;;;12.10;8.48;;;;;;;;;;4923546;29;20528;-54
2021/07/20 10:11:06;;;;;;;13.48;9.40;;;;;;;;;;4929015;29;20075;-54
2021/07/20 10:13:36;;;;;;;15.20;9.07;;;;;;;;;;4932733;29;20062;-55
2021/07/20 10:16:08;;;;;;;13.15;9.55;;;;;;;;;;4931015;29;20501;-55
2021/07/20 10:18:50;;;;;;;13.27;9.85;;;;;;;;;;4930555;29;20044;-55
2021/07/20 10:21:20;;;;;;;10.52;8.95;;;;;;;;;;4933104;29;20036;-51
2021/07/20 10:23:53;;;;;;;15.18;9.38;;;;;;;;;;4926387;29;20039;-52
2021/07/20 10:26:43;;;;;;;12.77;9.13;;;;;;;;;;4907688;29;20043;-55
2021/07/20 10:29:13;;;;;;;12.73;9.05;;;;;;;;;;4929767;28;20480;-54
2021/07/20 10:31:44;;;;;;;12.55;9.63;;;;;;;;;;4931665;29;20481;-48
2021/07/20 10:34:13;;;;;;;14.43;10.02;;;;;;;;;;4933618;29;20044;-51
2021/07/20 10:36:43;;;;;;;15.48;9.63;;;;;;;;;;4933326;29;20454;-55
2021/07/20 10:39:14;;;;;;;12.77;9.77;;;;;;;;;;4938950;29;20043;-52
2021/07/20 10:41:44;;;;;;;11.70;9.30;;;;;;;;;;4944485;29;20083;-56
2021/07/20 10:44:19;;;;;;;10.48;9.25;;;;;;;;;;4937546;29;20043;-56
2021/07/20 10:46:47;;;;;;;13.00;9.68;;;;;;;;;;4931736;29;20561;-53
2021/07/20 10:49:17;;;;;;;12.98;10.02;;;;;;;;;;4931797;29;20046;-50
2021/07/20 10:51:46;;;;;;;13.75;9.52;;;;;;;;;;4933020;29;20039;-53
2021/07/20 10:54:28;;;;;;;14.05;10.40;;;;;;;;;;4933482;29;20052;-51
2021/07/20 10:56:55;;;;;;;12.43;9.43;;;;;;;;;;4928263;29;20098;-52
2021/07/20 10:59:32;;;;;;;15.25;10.60;;;;;;;;;;4931610;29;20470;-54
2021/07/20 11:02:01;;;;;;;13.20;9.77;;;;;;;;;;4932410;29;20862;-52
2021/07/20 11:04:28;;;;;;;12.88;10.15;;;;;;;;;;4933587;29;20040;-54
2021/07/20 11:06:55;;;;;;;13.48;10.20;;;;;;;;;;4938755;29;20146;-53
2021/07/20 11:09:23;;;;;;;12.48;9.25;;;;;;;;;;4936494;28;20050;-58
2021/07/20 11:11:55;;;;;;;12.45;9.82;;;;;;;;;;4936413;29;20126;-56
2021/07/20 11:14:26;;;;;;;12.95;10.23;;;;;;;;;;4936958;29;20416;-56
2021/07/20 11:16:54;;;;;;;14.18;10.88;;;;;;;;;;4939010;29;20484;-58
2021/07/20 11:19:22;;;;;;;13.50;9.88;;;;;;;;;;4930276;29;20044;-57
2021/07/20 11:21:49;;;;;;;15.13;10.95;;;;;;;;;;4933521;29;20135;-58
2021/07/20 11:24:18;;;;;;;13.45;9.65;;;;;;;;;;4934635;29;20134;-56
2021/07/20 11:26:45;;;;;;;25.08;17.42;;;;;;;;;;4934814;29;20115;-53
2021/07/20 11:29:12;;;;;;;15.27;11.90;;;;;;;;;;4932320;29;20108;-56
2021/07/20 11:31:41;;;;;;;14.82;10.57;;;;;;;;;;4935899;29;20048;-53
2021/07/20 11:34:10;;;;;;;17.40;9.80;;;;;;;;;;4934816;29;20040;-56
2021/07/20 11:36:42;;;;;;;14.35;10.77;;;;;;;;;;4951776;28;20043;-55
2021/07/20 11:39:13;;;;;;;14.30;10.40;;;;;;;;;;4936053;29;20039;-56
2021/07/20 11:42:03;;;;;;;16.73;11.18;;;;;;;;;;4933840;29;20374;-53
2021/07/20 11:44:51;;;;;;;13.48;10.82;;;;;;;;;;4926191;29;20477;-56
2021/07/20 11:47:39;;;;;;;16.02;11.43;;;;;;;;;;4931424;29;20054;-53
2021/07/20 11:50:06;;;;;;;13.73;11.10;;;;;;;;;;4943768;23;20055;-45
2021/07/20 11:52:53;;;;;;;13.23;10.55;;;;;;;;;;4928458;29;20130;-49
2021/07/20 11:55:39;;;;;;;14.23;10.77;;;;;;;;;;4936415;29;20039;-51
2021/07/20 11:58:24;;;;;;;14.48;11.80;;;;;;;;;;4936262;29;20079;-45
2021/07/20 12:01:03;;;;;;;16.92;10.88;;;;;;;;;;4912956;29;20083;-49
2021/07/20 12:03:49;;;;;;;13.82;11.45;;;;;;;;;;4899072;29;20056;-47
2021/07/20 12:06:25;;;;;;;14.50;11.00;;;;;;;;;;4898973;29;20050;-48
2021/07/20 12:09:21;;;;;;;14.38;11.43;;;;;;;;;;4908963;29;20969;-47
2021/07/20 12:11:49;;;;;;;13.77;11.18;;;;;;;;;;4863954;29;20101;-48
2021/07/20 12:14:16;;;;;;;14.15;11.23;;;;;;;;;;4915199;29;20047;-48
2021/07/20 12:16:45;;;;;;;15.45;10.68;;;;;;;;;;4912043;29;20040;-48
2021/07/20 12:19:12;;;;;;;15.25;11.90;;;;;;;;;;4909437;29;20044;-47
2021/07/20 12:21:40;;;;;;;14.00;10.95;;;;;;;;;;4929343;29;20050;-47
2021/07/20 12:24:08;;;;;;;19.52;12.07;;;;;;;;;;4921816;29;20044;-46
2021/07/20 12:26:36;;;;;;;14.50;11.95;;;;;;;;;;4926656;29;20483;-46
2021/07/20 12:29:03;;;;;;;13.63;11.35;;;;;;;;;;4914914;29;20046;-50
2021/07/20 12:31:30;;;;;;;15.90;12.18;;;;;;;;;;4916824;29;20048;-49
2021/07/20 12:33:59;;;;;;;16.67;12.00;;;;;;;;;;4912248;29;20429;-50
2021/07/20 12:36:26;;;;;;;14.25;11.20;;;;;;;;;;4914960;29;20095;-46
2021/07/20 12:39:06;;;;;;;17.00;11.10;;;;;;;;;;4916906;29;20130;-47
2021/07/20 12:41:33;;;;;;;13.55;11.38;;;;;;;;;;4917979;29;20092;-45
2021/07/20 12:44:00;;;;;;;16.63;12.00;;;;;;;;;;4916062;29;20115;-46
2021/07/20 12:46:28;;;;;;;14.70;11.73;;;;;;;;;;4914565;29;20074;-47
2021/07/20 12:48:55;;;;;;;15.82;11.95;;;;;;;;;;4914307;29;20123;-49
2021/07/20 12:51:23;;;;;;;14.93;11.98;;;;;;;;;;4915437;29;20552;-45
2021/07/20 12:53:53;;;;;;;18.83;12.27;;;;;;;;;;4913170;29;20048;-45
2021/07/20 12:56:24;;;;;;;15.05;12.57;;;;;;;;;;4911136;29;20044;-48
2021/07/20 12:58:59;;;;;;;15.55;12.27;;;;;;;;;;4925147;29;20036;-50
2021/07/20 13:01:26;;;;;;;17.73;12.68;;;;;;;;;;4907120;29;20131;-49
2021/07/20 13:03:56;;;;;;;17.52;12.43;;;;;;;;;;4916469;29;20565;-50
2021/07/20 13:06:23;;;;;;;14.57;11.20;;;;;;;;;;4923179;29;20133;-48
2021/07/20 13:08:51;;;;;;;15.00;12.32;;;;;;;;;;4914113;29;20408;-48
2021/07/20 13:11:19;;;;;;;15.55;12.38;;;;;;;;;;4915606;29;20100;-49
2021/07/20 13:13:46;;;;;;;15.18;12.23;;;;;;;;;;4913013;29;20040;-48
2021/07/20 13:16:15;;;;;;;16.30;12.60;;;;;;;;;;4906259;29;20044;-48
2021/07/20 13:18:43;;;;;;;19.20;12.40;;;;;;;;;;4910634;29;20047;-47
2021/07/20 13:21:19;;;;;;;17.70;13.60;;;;;;;;;;4913033;29;20482;-46
2021/07/20 13:23:46;;;;;;;16.63;12.43;;;;;;;;;;4914230;29;20048;-49
2021/07/20 13:26:26;;;;;;;17.55;13.38;;;;;;;;;;4916525;29;20051;-48
2021/07/20 13:28:57;;;;;;;15.25;12.77;;;;;;;;;;4913544;29;20141;-47
2021/07/20 13:31:28;;;;;;;16.88;12.25;;;;;;;;;;4904206;29;20043;-47
2021/07/20 13:33:55;;;;;;;17.70;13.45;;;;;;;;;;4915459;29;20071;-47
2021/07/20 13:36:23;;;;;;;17.55;12.55;;;;;;;;;;4914976;29;20482;-46
2021/07/20 13:38:51;;;;;;;17.67;12.90;;;;;;;;;;4903393;29;20055;-49
2021/07/20 13:41:20;;;;;;;18.25;12.45;;;;;;;;;;4911234;29;20099;-47
2021/07/20 13:43:47;;;;;;;16.48;12.88;;;;;;;;;;4914669;29;20040;-49
2021/07/20 13:46:14;;;;;;;17.38;13.15;;;;;;;;;;4910883;29;20032;-49
2021/07/20 13:48:44;;;;;;;16.45;11.90;;;;;;;;;;4915140;29;20111;-48
2021/07/20 13:51:13;;;;;;;17.73;12.70;;;;;;;;;;4912901;29;20068;-50
2021/07/20 13:53:40;;;;;;;16.42;12.88;;;;;;;;;;4918357;29;20058;-50
2021/07/20 13:56:10;;;;;;;15.50;12.45;;;;;;;;;;4910970;29;20709;-50
2021/07/20 13:58:39;;;;;;;16.25;12.65;;;;;;;;;;4911758;29;20720;-49
2021/07/20 14:01:06;;;;;;;16.30;13.25;;;;;;;;;;4911346;29;20068;-51
2021/07/20 14:03:33;;;;;;;13.98;11.85;;;;;;;;;;4914964;29;20532;-50
2021/07/20 14:06:00;;;;;;;15.48;12.05;;;;;;;;;;4915431;29;20044;-48
2021/07/20 14:08:27;;;;;;;15.70;12.10;;;;;;;;;;4913065;29;20075;-48
2021/07/20 14:10:57;;;;;;;15.10;12.32;;;;;;;;;;4923319;29;20147;-49
2021/07/20 14:13:27;;;;;;;17.58;12.38;;;;;;;;;;4916616;29;20067;-51
2021/07/20 14:15:54;;;;;;;16.88;13.02;;;;;;;;;;4914307;29;20040;-49
2021/07/20 14:18:21;;;;;;;15.30;11.73;;;;;;;;;;4913114;29;20052;-51
2021/07/20 14:20:48;;;;;;;16.35;12.35;;;;;;;;;;4915289;29;20077;-48
2021/07/20 14:23:15;;;;;;;17.02;12.95;;;;;;;;;;4913484;29;20040;-52
2021/07/20 14:25:49;;;;;;;14.40;12.00;;;;;;;;;;4909999;29;20128;-48
2021/07/20 14:28:17;;;;;;;18.25;13.57;;;;;;;;;;4912878;29;20052;-53
2021/07/20 14:30:48;;;;;;;16.33;12.60;;;;;;;;;;4917590;29;20363;-48
2021/07/20 14:33:15;;;;;;;16.98;13.57;;;;;;;;;;4916635;29;20099;-48
2021/07/20 14:35:42;;;;;;;18.00;13.25;;;;;;;;;;4914494;29;20048;-48
2021/07/20 14:38:13;;;;;;;20.08;13.20;;;;;;;;;;4911514;29;20689;-49
2021/07/20 14:40:40;;;;;;;17.88;13.02;;;;;;;;;;4915937;29;20067;-49
2021/07/20 14:43:08;;;;;;;17.38;13.13;;;;;;;;;;4918180;29;20079;-50
2021/07/20 14:45:37;;;;;;;17.90;13.68;;;;;;;;;;4917778;29;20079;-48
2021/07/20 14:48:07;;;;;;;17.23;12.88;;;;;;;;;;4915819;29;20143;-48
2021/07/20 14:50:52;;;;;;;16.15;13.00;;;;;;;;;;4919686;29;20075;-50
2021/07/20 14:53:19;;;;;;;15.50;13.00;;;;;;;;;;4921444;29;20515;-48